Time;durP1;ratioP1;P1;durP2;ratioP2;P2;SDS_P1;SDS_P2;PMS_P1;PMS_P2;Temp;Humidity;BMP_temperature;BMP_pressure;BME280_temperature;BME280_humidity;BME280_pressure;Samples;Min_cycle;Max_cycle;Signal;HPM_P1;HPM_P2
2022/09/08 00:00:44;;;;;;;2.85;2.45;;;;;;;19.37;69.7373;94812.53;;;;
2022/09/08 00:01:45;;;;;;;2.85;2.45;;;;;;;19.37;69.7373;94812.53;;;;
2022/09/08 00:02:46;;;;;;;2.85;2.45;;;;;;;19.37;69.7373;94812.53;;;;
2022/09/08 00:03:46;;;;;;;2.85;2.45;;;;;;;19.37;69.7373;94812.53;;;;
2022/09/08 00:04:47;;;;;;;3.95;2.3;;;;;;;19.03;71.45117;94843.39;;;;
2022/09/08 00:05:47;;;;;;;3.95;2.3;;;;;;;19.03;71.45117;94843.39;;;;
2022/09/08 00:06:53;;;;;;;3.95;2.3;;;;;;;19.03;71.45117;94843.39;;;;
2022/09/08 00:07:55;;;;;;;3.95;2.3;;;;;;;19.03;71.45117;94843.39;;;;
2022/09/08 00:08:55;;;;;;;3.95;2.3;;;;;;;19.03;71.45117;94843.39;;;;
2022/09/08 00:09:56;;;;;;;3.95;2.3;;;;;;;19.03;71.45117;94843.39;;;;
2022/09/08 00:10:57;;;;;;;3.95;2.3;;;;;;;19.03;71.45117;94843.39;;;;
2022/09/08 00:12:01;;;;;;;3.95;2.3;;;;;;;19.03;71.45117;94843.39;;;;
2022/09/08 00:13:07;;;;;;;3.95;2.3;;;;;;;19.03;71.45117;94843.39;;;;
2022/09/08 00:14:09;;;;;;;3.95;2.3;;;;;;;19.03;71.45117;94843.39;;;;
2022/09/08 00:15:09;;;;;;;3.95;2.3;;;;;;;19.03;71.45117;94843.39;;;;
2022/09/08 00:16:11;;;;;;;4.650001;2.5;;;;;;;18.78;71.78516;94857.28;;;;
2022/09/08 00:17:12;;;;;;;4.650001;2.5;;;;;;;18.78;71.78516;94857.28;;;;
2022/09/08 00:18:12;;;;;;;4.650001;2.5;;;;;;;18.78;71.78516;94857.28;;;;
2022/09/08 00:19:13;;;;;;;4.650001;2.5;;;;;;;18.78;71.78516;94857.28;;;;
2022/09/08 00:20:13;;;;;;;4.650001;2.5;;;;;;;18.78;71.78516;94857.28;;;;
2022/09/08 00:21:14;;;;;;;4.650001;2.5;;;;;;;18.78;71.78516;94857.28;;;;
2022/09/08 00:22:15;;;;;;;4.650001;2.5;;;;;;;18.78;71.78516;94857.28;;;;
2022/09/08 00:23:15;;;;;;;4.650001;2.5;;;;;;;18.78;71.78516;94857.28;;;;
2022/09/08 00:24:15;;;;;;;4.650001;2.5;;;;;;;18.78;71.78516;94857.28;;;;
2022/09/08 00:25:16;;;;;;;4.650001;2.5;;;;;;;18.78;71.78516;94857.28;;;;
2022/09/08 00:26:16;;;;;;;5.05;2.65;;;;;;;18.7;72.15527;94854.75;;;;
2022/09/08 00:27:18;;;;;;;5.05;2.65;;;;;;;18.7;72.15527;94854.75;;;;
2022/09/08 00:28:19;;;;;;;5.05;2.65;;;;;;;18.7;72.15527;94854.75;;;;
2022/09/08 00:29:19;;;;;;;5.05;2.65;;;;;;;18.7;72.15527;94854.75;;;;
2022/09/08 00:30:20;;;;;;;5.05;2.65;;;;;;;18.7;72.15527;94854.75;;;;
2022/09/08 00:31:20;;;;;;;5.05;2.65;;;;;;;18.7;72.15527;94854.75;;;;
2022/09/08 00:32:21;;;;;;;5.05;2.65;;;;;;;18.7;72.15527;94854.75;;;;
2022/09/08 00:33:22;;;;;;;5.05;2.65;;;;;;;18.7;72.15527;94854.75;;;;
2022/09/08 00:34:23;;;;;;;5.05;2.65;;;;;;;18.7;72.15527;94854.75;;;;
2022/09/08 00:35:24;;;;;;;5.05;2.65;;;;;;;18.7;72.15527;94854.75;;;;
2022/09/08 00:36:25;;;;;;;5.05;2.65;;;;;;;18.7;72.15527;94854.75;;;;
2022/09/08 00:37:26;;;;;;;3.35;2.5;;;;;;;18.58;72.42188;94869.78;;;;
2022/09/08 00:38:26;;;;;;;3.35;2.5;;;;;;;18.58;72.42188;94869.78;;;;
2022/09/08 00:39:27;;;;;;;3.35;2.5;;;;;;;18.58;72.42188;94869.78;;;;
2022/09/08 00:40:29;;;;;;;3.35;2.5;;;;;;;18.58;72.42188;94869.78;;;;
2022/09/08 00:41:29;;;;;;;3.35;2.5;;;;;;;18.58;72.42188;94869.78;;;;
2022/09/08 00:42:30;;;;;;;3.35;2.5;;;;;;;18.58;72.42188;94869.78;;;;
2022/09/08 00:43:30;;;;;;;3.35;2.5;;;;;;;18.58;72.42188;94869.78;;;;
2022/09/08 00:44:34;;;;;;;3.35;2.5;;;;;;;18.58;72.42188;94869.78;;;;
2022/09/08 00:45:40;;;;;;;3.35;2.5;;;;;;;18.58;72.42188;94869.78;;;;
2022/09/08 00:46:47;;;;;;;3.35;2.5;;;;;;;18.58;72.42188;94869.78;;;;
2022/09/08 00:47:49;;;;;;;3.35;2.5;;;;;;;18.58;72.42188;94869.78;;;;
2022/09/08 00:48:57;;;;;;;3.35;2.5;;;;;;;18.58;72.42188;94869.78;;;;
2022/09/08 00:50:03;;;;;;;3.35;2.5;;;;;;;18.58;72.42188;94869.78;;;;
2022/09/08 00:51:08;;;;;;;3.35;2.5;;;;;;;18.58;72.42188;94869.78;;;;
2022/09/08 00:52:08;;;;;;;3.35;2.5;;;;;;;18.58;72.42188;94869.78;;;;
2022/09/08 00:53:09;;;;;;;3.35;2.5;;;;;;;18.58;72.42188;94869.78;;;;
2022/09/08 00:54:13;;;;;;;3.35;2.5;;;;;;;18.58;72.42188;94869.78;;;;
2022/09/08 00:55:16;;;;;;;3.35;2.5;;;;;;;18.58;72.42188;94869.78;;;;
2022/09/08 00:56:18;;;;;;;3.35;2.5;;;;;;;18.58;72.42188;94869.78;;;;
2022/09/08 00:57:18;;;;;;;3.35;2.5;;;;;;;18.58;72.42188;94869.78;;;;
2022/09/08 00:58:19;;;;;;;4.699999;3.15;;;;;;;18.5;72.94531;94845.83;;;;
2022/09/08 00:59:19;;;;;;;4.699999;3.15;;;;;;;18.5;72.94531;94845.83;;;;
2022/09/08 01:00:21;;;;;;;4.699999;3.15;;;;;;;18.5;72.94531;94845.83;;;;
2022/09/08 01:01:22;;;;;;;4.699999;3.15;;;;;;;18.5;72.94531;94845.83;;;;
2022/09/08 01:02:24;;;;;;;4.699999;3.15;;;;;;;18.5;72.94531;94845.83;;;;
2022/09/08 01:03:26;;;;;;;4.699999;3.15;;;;;;;18.5;72.94531;94845.83;;;;
2022/09/08 01:04:27;;;;;;;4.699999;3.15;;;;;;;18.5;72.94531;94845.83;;;;
2022/09/08 01:05:28;;;;;;;4.699999;3.15;;;;;;;18.5;72.94531;94845.83;;;;
2022/09/08 01:13:05;;;;;;;3.75;2.75;;;;;;;18.53;73.14844;94850.11;;;;
2022/09/08 01:14:07;;;;;;;3.75;2.75;;;;;;;18.53;73.14844;94850.11;;;;
2022/09/08 01:15:09;;;;;;;3.75;2.75;;;;;;;18.53;73.14844;94850.11;;;;
2022/09/08 01:16:12;;;;;;;3.75;2.75;;;;;;;18.53;73.14844;94850.11;;;;
2022/09/08 01:17:12;;;;;;;3.75;2.75;;;;;;;18.53;73.14844;94850.11;;;;
2022/09/08 01:18:15;;;;;;;3.75;2.75;;;;;;;18.53;73.14844;94850.11;;;;
2022/09/08 01:19:16;;;;;;;3.3;3;;;;;;;18.43;73.26367;94847.45;;;;
2022/09/08 01:20:25;;;;;;;3.3;3;;;;;;;18.43;73.26367;94847.45;;;;
2022/09/08 01:21:28;;;;;;;3.3;3;;;;;;;18.43;73.26367;94847.45;;;;
2022/09/08 01:22:41;;;;;;;3.3;3;;;;;;;18.43;73.26367;94847.45;;;;
2022/09/08 01:24:03;;;;;;;3.3;3;;;;;;;18.43;73.26367;94847.45;;;;
2022/09/08 01:25:27;;;;;;;3.3;3;;;;;;;18.43;73.26367;94847.45;;;;
2022/09/08 01:26:50;;;;;;;3.3;3;;;;;;;18.43;73.26367;94847.45;;;;
2022/09/08 01:28:26;;;;;;;3.3;3;;;;;;;18.43;73.26367;94847.45;;;;
2022/09/08 01:29:30;;;;;;;3.3;3;;;;;;;18.43;73.26367;94847.45;;;;
2022/09/08 01:30:33;;;;;;;4.9;3.65;;;;;;;18.31;73.60352;94848.38;;;;
2022/09/08 01:31:35;;;;;;;4.9;3.65;;;;;;;18.31;73.60352;94848.38;;;;
2022/09/08 01:32:40;;;;;;;4.9;3.65;;;;;;;18.31;73.60352;94848.38;;;;
2022/09/08 01:33:44;;;;;;;4.9;3.65;;;;;;;18.31;73.60352;94848.38;;;;
2022/09/08 01:34:44;;;;;;;4.9;3.65;;;;;;;18.31;73.60352;94848.38;;;;
2022/09/08 01:35:45;;;;;;;4.9;3.65;;;;;;;18.31;73.60352;94848.38;;;;
2022/09/08 01:36:46;;;;;;;4.9;3.65;;;;;;;18.31;73.60352;94848.38;;;;
2022/09/08 01:37:46;;;;;;;4.9;3.65;;;;;;;18.31;73.60352;94848.38;;;;
2022/09/08 01:38:48;;;;;;;4.9;3.65;;;;;;;18.31;73.60352;94848.38;;;;
2022/09/08 01:39:49;;;;;;;4.9;3.65;;;;;;;18.31;73.60352;94848.38;;;;
2022/09/08 01:40:49;;;;;;;4.3;3.8;;;;;;;18.08;74.14648;94874.22;;;;
2022/09/08 01:41:50;;;;;;;4.3;3.8;;;;;;;18.08;74.14648;94874.22;;;;
2022/09/08 01:42:50;;;;;;;4.3;3.8;;;;;;;18.08;74.14648;94874.22;;;;
2022/09/08 01:43:51;;;;;;;4.3;3.8;;;;;;;18.08;74.14648;94874.22;;;;
2022/09/08 01:44:51;;;;;;;4.3;3.8;;;;;;;18.08;74.14648;94874.22;;;;
2022/09/08 01:45:52;;;;;;;4.3;3.8;;;;;;;18.08;74.14648;94874.22;;;;
2022/09/08 01:46:56;;;;;;;4.3;3.8;;;;;;;18.08;74.14648;94874.22;;;;
2022/09/08 01:47:56;;;;;;;4.3;3.8;;;;;;;18.08;74.14648;94874.22;;;;
2022/09/08 01:48:57;;;;;;;4.3;3.8;;;;;;;18.08;74.14648;94874.22;;;;
2022/09/08 01:49:57;;;;;;;4.3;3.8;;;;;;;18.08;74.14648;94874.22;;;;
2022/09/08 01:50:58;;;;;;;4.3;3.8;;;;;;;18.08;74.14648;94874.22;;;;
2022/09/08 01:52:00;;;;;;;5.65;3.3;;;;;;;17.96;74.62012;94867.4;;;;
2022/09/08 01:53:01;;;;;;;5.65;3.3;;;;;;;17.96;74.62012;94867.4;;;;
2022/09/08 01:54:02;;;;;;;5.65;3.3;;;;;;;17.96;74.62012;94867.4;;;;
2022/09/08 01:55:02;;;;;;;5.65;3.3;;;;;;;17.96;74.62012;94867.4;;;;
2022/09/08 01:56:04;;;;;;;5.65;3.3;;;;;;;17.96;74.62012;94867.4;;;;
2022/09/08 01:57:05;;;;;;;5.65;3.3;;;;;;;17.96;74.62012;94867.4;;;;
2022/09/08 01:58:06;;;;;;;5.65;3.3;;;;;;;17.96;74.62012;94867.4;;;;
2022/09/08 01:59:06;;;;;;;5.65;3.3;;;;;;;17.96;74.62012;94867.4;;;;
2022/09/08 02:00:07;;;;;;;5.65;3.3;;;;;;;17.96;74.62012;94867.4;;;;
2022/09/08 02:01:09;;;;;;;5.65;3.3;;;;;;;17.96;74.62012;94867.4;;;;
2022/09/08 02:02:09;;;;;;;5.849999;3.2;;;;;;;17.77;74.92773;94867.66;;;;
2022/09/08 02:03:09;;;;;;;5.849999;3.2;;;;;;;17.77;74.92773;94867.66;;;;
2022/09/08 02:04:11;;;;;;;5.849999;3.2;;;;;;;17.77;74.92773;94867.66;;;;
2022/09/08 02:05:13;;;;;;;5.849999;3.2;;;;;;;17.77;74.92773;94867.66;;;;
2022/09/08 02:06:13;;;;;;;5.849999;3.2;;;;;;;17.77;74.92773;94867.66;;;;
2022/09/08 02:07:17;;;;;;;5.849999;3.2;;;;;;;17.77;74.92773;94867.66;;;;
2022/09/08 02:08:21;;;;;;;5.849999;3.2;;;;;;;17.77;74.92773;94867.66;;;;
2022/09/08 02:09:21;;;;;;;5.849999;3.2;;;;;;;17.77;74.92773;94867.66;;;;
2022/09/08 02:10:22;;;;;;;5.849999;3.2;;;;;;;17.77;74.92773;94867.66;;;;
2022/09/08 02:11:23;;;;;;;5.849999;3.2;;;;;;;17.77;74.92773;94867.66;;;;
2022/09/08 02:12:23;;;;;;;5.849999;3.2;;;;;;;17.77;74.92773;94867.66;;;;
2022/09/08 02:13:24;;;;;;;3.95;2.75;;;;;;;17.61;75.41406;94851.34;;;;
2022/09/08 02:14:26;;;;;;;3.95;2.75;;;;;;;17.61;75.41406;94851.34;;;;
2022/09/08 02:15:27;;;;;;;3.95;2.75;;;;;;;17.61;75.41406;94851.34;;;;
2022/09/08 02:16:28;;;;;;;3.95;2.75;;;;;;;17.61;75.41406;94851.34;;;;
2022/09/08 02:17:28;;;;;;;3.95;2.75;;;;;;;17.61;75.41406;94851.34;;;;
2022/09/08 02:18:30;;;;;;;3.95;2.75;;;;;;;17.61;75.41406;94851.34;;;;
2022/09/08 02:19:31;;;;;;;3.95;2.75;;;;;;;17.61;75.41406;94851.34;;;;
2022/09/08 02:20:32;;;;;;;3.95;2.75;;;;;;;17.61;75.41406;94851.34;;;;
2022/09/08 02:21:33;;;;;;;3.95;2.75;;;;;;;17.61;75.41406;94851.34;;;;
2022/09/08 02:22:33;;;;;;;3.95;2.75;;;;;;;17.61;75.41406;94851.34;;;;
2022/09/08 02:23:34;;;;;;;3.75;2.7;;;;;;;17.4;75.72559;94855.13;;;;
2022/09/08 02:24:35;;;;;;;3.75;2.7;;;;;;;17.4;75.72559;94855.13;;;;
2022/09/08 02:25:36;;;;;;;3.75;2.7;;;;;;;17.4;75.72559;94855.13;;;;
2022/09/08 02:26:37;;;;;;;3.75;2.7;;;;;;;17.4;75.72559;94855.13;;;;
2022/09/08 02:27:38;;;;;;;3.75;2.7;;;;;;;17.4;75.72559;94855.13;;;;
2022/09/08 02:28:39;;;;;;;3.75;2.7;;;;;;;17.4;75.72559;94855.13;;;;
2022/09/08 02:29:39;;;;;;;3.75;2.7;;;;;;;17.4;75.72559;94855.13;;;;
2022/09/08 02:30:40;;;;;;;3.75;2.7;;;;;;;17.4;75.72559;94855.13;;;;
2022/09/08 02:31:40;;;;;;;3.75;2.7;;;;;;;17.4;75.72559;94855.13;;;;
2022/09/08 02:32:41;;;;;;;3.75;2.7;;;;;;;17.4;75.72559;94855.13;;;;
2022/09/08 02:33:42;;;;;;;3.75;2.7;;;;;;;17.4;75.72559;94855.13;;;;
2022/09/08 02:34:42;;;;;;;4.25;2.6;;;;;;;17.31;75.91895;94849.91;;;;
2022/09/08 02:35:43;;;;;;;4.25;2.6;;;;;;;17.31;75.91895;94849.91;;;;
2022/09/08 02:36:44;;;;;;;4.25;2.6;;;;;;;17.31;75.91895;94849.91;;;;
2022/09/08 02:37:44;;;;;;;4.25;2.6;;;;;;;17.31;75.91895;94849.91;;;;
2022/09/08 02:38:45;;;;;;;4.25;2.6;;;;;;;17.31;75.91895;94849.91;;;;
2022/09/08 02:39:48;;;;;;;4.25;2.6;;;;;;;17.31;75.91895;94849.91;;;;
2022/09/08 02:40:48;;;;;;;4.25;2.6;;;;;;;17.31;75.91895;94849.91;;;;
2022/09/08 02:41:49;;;;;;;4.25;2.6;;;;;;;17.31;75.91895;94849.91;;;;
2022/09/08 02:42:50;;;;;;;4.25;2.6;;;;;;;17.31;75.91895;94849.91;;;;
2022/09/08 02:43:50;;;;;;;4.25;2.6;;;;;;;17.31;75.91895;94849.91;;;;
2022/09/08 02:44:51;;;;;;;4.25;2.6;;;;;;;17.31;75.91895;94849.91;;;;
2022/09/08 02:45:51;;;;;;;4.25;2.6;;;;;;;17.31;75.91895;94849.91;;;;
2022/09/08 02:46:52;;;;;;;4.25;2.6;;;;;;;17.31;75.91895;94849.91;;;;
2022/09/08 02:47:52;;;;;;;4.25;2.6;;;;;;;17.31;75.91895;94849.91;;;;
2022/09/08 02:48:53;;;;;;;4.25;2.6;;;;;;;17.31;75.91895;94849.91;;;;
2022/09/08 02:49:53;;;;;;;4.25;2.6;;;;;;;17.31;75.91895;94849.91;;;;
2022/09/08 02:50:54;;;;;;;4.25;2.6;;;;;;;17.31;75.91895;94849.91;;;;
2022/09/08 02:51:58;;;;;;;4.25;2.6;;;;;;;17.31;75.91895;94849.91;;;;
2022/09/08 02:52:58;;;;;;;4.25;2.6;;;;;;;17.31;75.91895;94849.91;;;;
2022/09/08 02:53:59;;;;;;;4.25;2.6;;;;;;;17.31;75.91895;94849.91;;;;
2022/09/08 02:55:00;;;;;;;4.25;2.6;;;;;;;17.31;75.91895;94849.91;;;;
2022/09/08 02:56:01;;;;;;;3.1;2.6;;;;;;;17.2;76.23828;94805.13;;;;
2022/09/08 02:57:02;;;;;;;3.1;2.6;;;;;;;17.2;76.23828;94805.13;;;;
2022/09/08 02:58:04;;;;;;;3.1;2.6;;;;;;;17.2;76.23828;94805.13;;;;
2022/09/08 02:59:04;;;;;;;3.1;2.6;;;;;;;17.2;76.23828;94805.13;;;;
2022/09/08 03:00:05;;;;;;;3.1;2.6;;;;;;;17.2;76.23828;94805.13;;;;
2022/09/08 03:01:07;;;;;;;3.1;2.6;;;;;;;17.2;76.23828;94805.13;;;;
2022/09/08 03:02:08;;;;;;;3.1;2.6;;;;;;;17.2;76.23828;94805.13;;;;
2022/09/08 03:03:08;;;;;;;3.1;2.6;;;;;;;17.2;76.23828;94805.13;;;;
2022/09/08 03:04:09;;;;;;;3.1;2.6;;;;;;;17.2;76.23828;94805.13;;;;
2022/09/08 03:05:09;;;;;;;3.1;2.6;;;;;;;17.2;76.23828;94805.13;;;;
2022/09/08 03:06:10;;;;;;;3.1;2.6;;;;;;;17.2;76.23828;94805.13;;;;
2022/09/08 03:07:10;;;;;;;3.1;2.6;;;;;;;17.2;76.23828;94805.13;;;;
2022/09/08 03:08:12;;;;;;;3.1;2.6;;;;;;;17.2;76.23828;94805.13;;;;
2022/09/08 03:09:13;;;;;;;3.1;2.6;;;;;;;17.2;76.23828;94805.13;;;;
2022/09/08 03:10:14;;;;;;;3.1;2.6;;;;;;;17.2;76.23828;94805.13;;;;
2022/09/08 03:11:16;;;;;;;3.1;2.6;;;;;;;17.2;76.23828;94805.13;;;;
2022/09/08 03:12:17;;;;;;;3.1;2.6;;;;;;;17.2;76.23828;94805.13;;;;
2022/09/08 03:13:17;;;;;;;3.1;2.6;;;;;;;17.2;76.23828;94805.13;;;;
2022/09/08 03:14:18;;;;;;;3.1;2.6;;;;;;;17.2;76.23828;94805.13;;;;
2022/09/08 03:15:18;;;;;;;3.1;2.6;;;;;;;17.2;76.23828;94805.13;;;;
2022/09/08 03:16:20;;;;;;;3.1;2.6;;;;;;;17.2;76.23828;94805.13;;;;
2022/09/08 03:17:21;;;;;;;3.35;2.8;;;;;;;16.99;76.68262;94801.2;;;;
2022/09/08 03:18:22;;;;;;;3.35;2.8;;;;;;;16.99;76.68262;94801.2;;;;
2022/09/08 03:19:23;;;;;;;3.35;2.8;;;;;;;16.99;76.68262;94801.2;;;;
2022/09/08 03:20:23;;;;;;;3.35;2.8;;;;;;;16.99;76.68262;94801.2;;;;
2022/09/08 03:21:25;;;;;;;3.35;2.8;;;;;;;16.99;76.68262;94801.2;;;;
2022/09/08 03:22:26;;;;;;;3.35;2.8;;;;;;;16.99;76.68262;94801.2;;;;
2022/09/08 03:23:27;;;;;;;3.35;2.8;;;;;;;16.99;76.68262;94801.2;;;;
2022/09/08 03:24:27;;;;;;;3.35;2.8;;;;;;;16.99;76.68262;94801.2;;;;
2022/09/08 03:25:28;;;;;;;3.35;2.8;;;;;;;16.99;76.68262;94801.2;;;;
2022/09/08 03:26:29;;;;;;;3.35;2.8;;;;;;;16.99;76.68262;94801.2;;;;
2022/09/08 03:27:30;;;;;;;2.65;2.45;;;;;;;16.81;76.83594;94771.53;;;;
2022/09/08 03:28:30;;;;;;;2.65;2.45;;;;;;;16.81;76.83594;94771.53;;;;
2022/09/08 03:29:31;;;;;;;2.65;2.45;;;;;;;16.81;76.83594;94771.53;;;;
2022/09/08 03:30:32;;;;;;;2.65;2.45;;;;;;;16.81;76.83594;94771.53;;;;
2022/09/08 03:31:34;;;;;;;2.65;2.45;;;;;;;16.81;76.83594;94771.53;;;;
2022/09/08 03:32:34;;;;;;;2.65;2.45;;;;;;;16.81;76.83594;94771.53;;;;
2022/09/08 03:33:37;;;;;;;2.65;2.45;;;;;;;16.81;76.83594;94771.53;;;;
2022/09/08 03:34:38;;;;;;;2.65;2.45;;;;;;;16.81;76.83594;94771.53;;;;
2022/09/08 03:35:38;;;;;;;2.65;2.45;;;;;;;16.81;76.83594;94771.53;;;;
2022/09/08 03:36:39;;;;;;;2.65;2.45;;;;;;;16.81;76.83594;94771.53;;;;
2022/09/08 03:37:40;;;;;;;2.65;2.45;;;;;;;16.81;76.83594;94771.53;;;;
2022/09/08 03:38:41;;;;;;;4.4;2.6;;;;;;;16.78;77.26758;94771.11;;;;
2022/09/08 03:39:42;;;;;;;4.4;2.6;;;;;;;16.78;77.26758;94771.11;;;;
2022/09/08 03:40:43;;;;;;;4.4;2.6;;;;;;;16.78;77.26758;94771.11;;;;
2022/09/08 03:41:44;;;;;;;4.4;2.6;;;;;;;16.78;77.26758;94771.11;;;;
2022/09/08 03:42:44;;;;;;;4.4;2.6;;;;;;;16.78;77.26758;94771.11;;;;
2022/09/08 03:43:45;;;;;;;4.4;2.6;;;;;;;16.78;77.26758;94771.11;;;;
2022/09/08 03:44:48;;;;;;;4.4;2.6;;;;;;;16.78;77.26758;94771.11;;;;
2022/09/08 03:45:48;;;;;;;4.4;2.6;;;;;;;16.78;77.26758;94771.11;;;;
2022/09/08 03:46:49;;;;;;;4.4;2.6;;;;;;;16.78;77.26758;94771.11;;;;
2022/09/08 03:47:49;;;;;;;4.4;2.6;;;;;;;16.78;77.26758;94771.11;;;;
2022/09/08 03:48:50;;;;;;;2.9;2.5;;;;;;;16.78;77.50879;94746.15;;;;
2022/09/08 03:49:51;;;;;;;2.9;2.5;;;;;;;16.78;77.50879;94746.15;;;;
2022/09/08 03:50:51;;;;;;;2.9;2.5;;;;;;;16.78;77.50879;94746.15;;;;
2022/09/08 03:51:52;;;;;;;2.9;2.5;;;;;;;16.78;77.50879;94746.15;;;;
2022/09/08 03:52:52;;;;;;;2.9;2.5;;;;;;;16.78;77.50879;94746.15;;;;
2022/09/08 03:53:53;;;;;;;2.9;2.5;;;;;;;16.78;77.50879;94746.15;;;;
2022/09/08 03:54:55;;;;;;;2.9;2.5;;;;;;;16.78;77.50879;94746.15;;;;
2022/09/08 03:55:56;;;;;;;2.9;2.5;;;;;;;16.78;77.50879;94746.15;;;;
2022/09/08 03:56:56;;;;;;;2.9;2.5;;;;;;;16.78;77.50879;94746.15;;;;
2022/09/08 03:57:57;;;;;;;2.9;2.5;;;;;;;16.78;77.50879;94746.15;;;;
2022/09/08 03:58:58;;;;;;;2.9;2.5;;;;;;;16.78;77.50879;94746.15;;;;
2022/09/08 03:59:58;;;;;;;4.85;2.3;;;;;;;16.81;77.59961;94734.16;;;;
2022/09/08 04:01:00;;;;;;;4.85;2.3;;;;;;;16.81;77.59961;94734.16;;;;
2022/09/08 04:02:01;;;;;;;4.85;2.3;;;;;;;16.81;77.59961;94734.16;;;;
2022/09/08 04:03:02;;;;;;;4.85;2.3;;;;;;;16.81;77.59961;94734.16;;;;
2022/09/08 04:04:02;;;;;;;4.85;2.3;;;;;;;16.81;77.59961;94734.16;;;;
2022/09/08 04:05:03;;;;;;;4.85;2.3;;;;;;;16.81;77.59961;94734.16;;;;
2022/09/08 04:06:05;;;;;;;4.85;2.3;;;;;;;16.81;77.59961;94734.16;;;;
2022/09/08 04:07:07;;;;;;;4.85;2.3;;;;;;;16.81;77.59961;94734.16;;;;
2022/09/08 04:08:08;;;;;;;4.85;2.3;;;;;;;16.81;77.59961;94734.16;;;;
2022/09/08 04:09:10;;;;;;;4.85;2.3;;;;;;;16.81;77.59961;94734.16;;;;
2022/09/08 04:10:11;;;;;;;3.5;2.25;;;;;;;16.77;77.74512;94765.1;;;;
2022/09/08 04:11:13;;;;;;;3.5;2.25;;;;;;;16.77;77.74512;94765.1;;;;
2022/09/08 04:12:15;;;;;;;3.5;2.25;;;;;;;16.77;77.74512;94765.1;;;;
2022/09/08 04:13:16;;;;;;;3.5;2.25;;;;;;;16.77;77.74512;94765.1;;;;
2022/09/08 04:14:16;;;;;;;3.5;2.25;;;;;;;16.77;77.74512;94765.1;;;;
2022/09/08 04:15:17;;;;;;;3.5;2.25;;;;;;;16.77;77.74512;94765.1;;;;
2022/09/08 04:16:17;;;;;;;3.5;2.25;;;;;;;16.77;77.74512;94765.1;;;;
2022/09/08 04:17:18;;;;;;;3.5;2.25;;;;;;;16.77;77.74512;94765.1;;;;
2022/09/08 04:18:21;;;;;;;3.5;2.25;;;;;;;16.77;77.74512;94765.1;;;;
2022/09/08 04:19:22;;;;;;;3.5;2.25;;;;;;;16.77;77.74512;94765.1;;;;
2022/09/08 04:20:22;;;;;;;3.5;2.25;;;;;;;16.77;77.74512;94765.1;;;;
2022/09/08 04:21:23;;;;;;;6.65;2.55;;;;;;;16.79;77.85742;94756.3;;;;
2022/09/08 04:22:23;;;;;;;6.65;2.55;;;;;;;16.79;77.85742;94756.3;;;;
2022/09/08 04:23:24;;;;;;;6.65;2.55;;;;;;;16.79;77.85742;94756.3;;;;
2022/09/08 04:24:25;;;;;;;6.65;2.55;;;;;;;16.79;77.85742;94756.3;;;;
2022/09/08 04:25:26;;;;;;;6.65;2.55;;;;;;;16.79;77.85742;94756.3;;;;
2022/09/08 04:26:26;;;;;;;6.65;2.55;;;;;;;16.79;77.85742;94756.3;;;;
2022/09/08 04:27:27;;;;;;;6.65;2.55;;;;;;;16.79;77.85742;94756.3;;;;
2022/09/08 04:28:27;;;;;;;6.65;2.55;;;;;;;16.79;77.85742;94756.3;;;;
2022/09/08 04:29:29;;;;;;;6.65;2.55;;;;;;;16.79;77.85742;94756.3;;;;
2022/09/08 04:30:30;;;;;;;6.65;2.55;;;;;;;16.79;77.85742;94756.3;;;;
2022/09/08 04:31:30;;;;;;;2.85;2.4;;;;;;;16.73;77.90039;94776.05;;;;
2022/09/08 04:32:31;;;;;;;2.85;2.4;;;;;;;16.73;77.90039;94776.05;;;;
2022/09/08 04:33:33;;;;;;;2.85;2.4;;;;;;;16.73;77.90039;94776.05;;;;
2022/09/08 04:34:34;;;;;;;2.85;2.4;;;;;;;16.73;77.90039;94776.05;;;;
2022/09/08 04:35:35;;;;;;;2.85;2.4;;;;;;;16.73;77.90039;94776.05;;;;
2022/09/08 04:36:37;;;;;;;2.85;2.4;;;;;;;16.73;77.90039;94776.05;;;;
2022/09/08 04:37:38;;;;;;;2.85;2.4;;;;;;;16.73;77.90039;94776.05;;;;
2022/09/08 04:38:39;;;;;;;2.85;2.4;;;;;;;16.73;77.90039;94776.05;;;;
2022/09/08 04:39:40;;;;;;;2.85;2.4;;;;;;;16.73;77.90039;94776.05;;;;
2022/09/08 04:40:40;;;;;;;2.85;2.4;;;;;;;16.73;77.90039;94776.05;;;;
2022/09/08 04:41:41;;;;;;;2.85;2.4;;;;;;;16.73;77.90039;94776.05;;;;
2022/09/08 04:42:42;;;;;;;3.7;2.25;;;;;;;16.73;78.18555;94795.92;;;;
2022/09/08 04:43:42;;;;;;;3.7;2.25;;;;;;;16.73;78.18555;94795.92;;;;
2022/09/08 04:44:44;;;;;;;3.7;2.25;;;;;;;16.73;78.18555;94795.92;;;;
2022/09/08 04:45:44;;;;;;;3.7;2.25;;;;;;;16.73;78.18555;94795.92;;;;
2022/09/08 04:46:44;;;;;;;3.7;2.25;;;;;;;16.73;78.18555;94795.92;;;;
2022/09/08 04:47:45;;;;;;;3.7;2.25;;;;;;;16.73;78.18555;94795.92;;;;
2022/09/08 04:48:45;;;;;;;3.7;2.25;;;;;;;16.73;78.18555;94795.92;;;;
2022/09/08 04:49:47;;;;;;;3.7;2.25;;;;;;;16.73;78.18555;94795.92;;;;
2022/09/08 04:50:47;;;;;;;3.7;2.25;;;;;;;16.73;78.18555;94795.92;;;;
2022/09/08 04:51:52;;;;;;;3.7;2.25;;;;;;;16.73;78.18555;94795.92;;;;
2022/09/08 04:52:53;;;;;;;2.35;1.8;;;;;;;16.71;78.37695;94812.87;;;;
2022/09/08 04:53:55;;;;;;;2.35;1.8;;;;;;;16.71;78.37695;94812.87;;;;
2022/09/08 04:54:56;;;;;;;2.35;1.8;;;;;;;16.71;78.37695;94812.87;;;;
2022/09/08 04:55:57;;;;;;;2.35;1.8;;;;;;;16.71;78.37695;94812.87;;;;
2022/09/08 04:56:57;;;;;;;2.35;1.8;;;;;;;16.71;78.37695;94812.87;;;;
2022/09/08 04:57:58;;;;;;;2.35;1.8;;;;;;;16.71;78.37695;94812.87;;;;
2022/09/08 04:58:58;;;;;;;2.35;1.8;;;;;;;16.71;78.37695;94812.87;;;;
2022/09/08 04:59:59;;;;;;;2.35;1.8;;;;;;;16.71;78.37695;94812.87;;;;
2022/09/08 05:01:00;;;;;;;2.35;1.8;;;;;;;16.71;78.37695;94812.87;;;;
2022/09/08 05:02:03;;;;;;;2.35;1.8;;;;;;;16.71;78.37695;94812.87;;;;
2022/09/08 05:03:04;;;;;;;2.35;1.8;;;;;;;16.71;78.37695;94812.87;;;;
2022/09/08 05:04:05;;;;;;;1.95;1.85;;;;;;;16.74;78.59277;94838.51;;;;
2022/09/08 05:05:05;;;;;;;1.95;1.85;;;;;;;16.74;78.59277;94838.51;;;;
2022/09/08 05:06:07;;;;;;;1.95;1.85;;;;;;;16.74;78.59277;94838.51;;;;
2022/09/08 05:07:09;;;;;;;1.95;1.85;;;;;;;16.74;78.59277;94838.51;;;;
2022/09/08 05:08:09;;;;;;;1.95;1.85;;;;;;;16.74;78.59277;94838.51;;;;
2022/09/08 05:09:11;;;;;;;1.95;1.85;;;;;;;16.74;78.59277;94838.51;;;;
2022/09/08 05:10:12;;;;;;;1.95;1.85;;;;;;;16.74;78.59277;94838.51;;;;
2022/09/08 05:11:12;;;;;;;1.95;1.85;;;;;;;16.74;78.59277;94838.51;;;;
2022/09/08 05:12:13;;;;;;;1.95;1.85;;;;;;;16.74;78.59277;94838.51;;;;
2022/09/08 05:13:13;;;;;;;1.95;1.85;;;;;;;16.74;78.59277;94838.51;;;;
2022/09/08 05:14:14;;;;;;;1.95;1.85;;;;;;;16.74;78.59277;94838.51;;;;
2022/09/08 05:15:14;;;;;;;1.95;1.85;;;;;;;16.74;78.59277;94838.51;;;;
2022/09/08 05:16:15;;;;;;;1.95;1.85;;;;;;;16.74;78.59277;94838.51;;;;
2022/09/08 05:17:17;;;;;;;1.95;1.85;;;;;;;16.74;78.59277;94838.51;;;;
2022/09/08 05:18:18;;;;;;;1.95;1.85;;;;;;;16.74;78.59277;94838.51;;;;
2022/09/08 05:19:18;;;;;;;1.95;1.85;;;;;;;16.74;78.59277;94838.51;;;;
2022/09/08 05:20:19;;;;;;;1.95;1.85;;;;;;;16.74;78.59277;94838.51;;;;
2022/09/08 05:21:19;;;;;;;1.95;1.85;;;;;;;16.74;78.59277;94838.51;;;;
2022/09/08 05:22:20;;;;;;;1.95;1.85;;;;;;;16.74;78.59277;94838.51;;;;
2022/09/08 05:23:21;;;;;;;1.95;1.85;;;;;;;16.74;78.59277;94838.51;;;;
2022/09/08 05:24:21;;;;;;;1.95;1.85;;;;;;;16.74;78.59277;94838.51;;;;
2022/09/08 05:25:22;;;;;;;1.7;1.6;;;;;;;17.03;78.52344;94861.47;;;;
2022/09/08 05:26:23;;;;;;;1.7;1.6;;;;;;;17.03;78.52344;94861.47;;;;
2022/09/08 05:27:24;;;;;;;1.7;1.6;;;;;;;17.03;78.52344;94861.47;;;;
2022/09/08 05:28:25;;;;;;;1.7;1.6;;;;;;;17.03;78.52344;94861.47;;;;
2022/09/08 05:29:27;;;;;;;1.7;1.6;;;;;;;17.03;78.52344;94861.47;;;;
2022/09/08 05:30:28;;;;;;;1.7;1.6;;;;;;;17.03;78.52344;94861.47;;;;
2022/09/08 05:31:28;;;;;;;1.7;1.6;;;;;;;17.03;78.52344;94861.47;;;;
2022/09/08 05:32:29;;;;;;;1.7;1.6;;;;;;;17.03;78.52344;94861.47;;;;
2022/09/08 05:33:30;;;;;;;1.7;1.6;;;;;;;17.03;78.52344;94861.47;;;;
2022/09/08 05:34:31;;;;;;;1.7;1.6;;;;;;;17.03;78.52344;94861.47;;;;
2022/09/08 05:35:32;;;;;;;1.7;1.6;;;;;;;17.03;78.52344;94861.47;;;;
2022/09/08 05:36:35;;;;;;;2.6;1.4;;;;;;;17.15;78.40234;94885.28;;;;
2022/09/08 05:37:36;;;;;;;2.6;1.4;;;;;;;17.15;78.40234;94885.28;;;;
2022/09/08 05:38:36;;;;;;;2.6;1.4;;;;;;;17.15;78.40234;94885.28;;;;
2022/09/08 05:39:38;;;;;;;2.6;1.4;;;;;;;17.15;78.40234;94885.28;;;;
2022/09/08 05:40:39;;;;;;;2.6;1.4;;;;;;;17.15;78.40234;94885.28;;;;
2022/09/08 05:41:39;;;;;;;2.6;1.4;;;;;;;17.15;78.40234;94885.28;;;;
2022/09/08 05:42:40;;;;;;;2.6;1.4;;;;;;;17.15;78.40234;94885.28;;;;
2022/09/08 05:43:40;;;;;;;2.6;1.4;;;;;;;17.15;78.40234;94885.28;;;;
2022/09/08 05:44:41;;;;;;;2.6;1.4;;;;;;;17.15;78.40234;94885.28;;;;
2022/09/08 05:45:42;;;;;;;2.6;1.4;;;;;;;17.15;78.40234;94885.28;;;;
2022/09/08 05:46:43;;;;;;;1.7;1.2;;;;;;;17.22;78.05469;94871.53;;;;
2022/09/08 05:47:43;;;;;;;1.7;1.2;;;;;;;17.22;78.05469;94871.53;;;;
2022/09/08 05:48:44;;;;;;;1.7;1.2;;;;;;;17.22;78.05469;94871.53;;;;
2022/09/08 05:49:45;;;;;;;1.7;1.2;;;;;;;17.22;78.05469;94871.53;;;;
2022/09/08 05:50:46;;;;;;;1.7;1.2;;;;;;;17.22;78.05469;94871.53;;;;
2022/09/08 05:51:49;;;;;;;1.7;1.2;;;;;;;17.22;78.05469;94871.53;;;;
2022/09/08 05:52:49;;;;;;;1.7;1.2;;;;;;;17.22;78.05469;94871.53;;;;
2022/09/08 05:53:50;;;;;;;1.7;1.2;;;;;;;17.22;78.05469;94871.53;;;;
2022/09/08 05:54:50;;;;;;;1.7;1.2;;;;;;;17.22;78.05469;94871.53;;;;
2022/09/08 05:55:51;;;;;;;1.7;1.2;;;;;;;17.22;78.05469;94871.53;;;;
2022/09/08 05:56:56;;;;;;;2.2;1.2;;;;;;;17.19;77.70996;94866.72;;;;
2022/09/08 05:57:57;;;;;;;2.2;1.2;;;;;;;17.19;77.70996;94866.72;;;;
2022/09/08 05:58:57;;;;;;;2.2;1.2;;;;;;;17.19;77.70996;94866.72;;;;